Terminal Aerodrome Forecast
Issued by NWS

Home | Current Version | Previous Version | Text Only | Print | Product List | Glossary On
Versions: 1 2 3 4 5 6 7 8 9 10 11 12
000
FTUS44 KTSA 041738
TAFMLC
TAF
KMLC 041738Z 0418/0518 18003KT P6SM VCSH BKN080 OVC250
     FM042100 05006KT P6SM SCT100 BKN250
     FM051500 20008KT P6SM BKN250=

USA.gov is the U.S. government's official web portal to all federal, state and local government web resources and services.